DAL2267 KLAX-KSFO
Flight info
| Callsign | DAL2267 |
|---|---|
| Flight time | 0h 55m |
| Altitude | 32000 |
| Route | SUMMR2 STOKD SERFR SERFR4 |
| Aircraft | B739/M-SDE2E3FGHIRWXY/LB1 |
Departure
| Time | 2026-04-20 19:04 |
|---|---|
| Airport | Los Angeles International Airport (KLAX) |
Arrival
| Time | 2026-04-20 20:00 |
|---|---|
| Airport | San Francisco International Airport (KSFO) |
| Time | Latitude | Longitude | Altitude | Speed | Heading |
|---|---|---|---|---|---|
| 2026-04-20 18:32 | 33.94641 | -118.40636 | 92 ft | 0 kts | 263° |
| 2026-04-20 18:55 | 33.94643 | -118.40619 | 92 ft | 4 kts | 263° |
| 2026-04-20 18:55 | 33.94645 | -118.40592 | 93 ft | 4 kts | 282° |
| 2026-04-20 18:55 | 33.94633 | -118.40568 | 92 ft | 4 kts | 335° |
| 2026-04-20 18:56 | 33.94608 | -118.40560 | 92 ft | 4 kts | 353° |
| 2026-04-20 18:56 | 33.94614 | -118.40561 | 92 ft | 4 kts | 353° |
| 2026-04-20 18:56 | 33.94640 | -118.40565 | 94 ft | 2 kts | 353° |
| 2026-04-20 18:56 | 33.94643 | -118.40565 | 94 ft | 0 kts | 353° |
| 2026-04-20 18:59 | 33.94644 | -118.40565 | 92 ft | 1 kts | 353° |
| 2026-04-20 18:59 | 33.94654 | -118.40567 | 94 ft | 2 kts | 353° |
| 2026-04-20 18:59 | 33.94667 | -118.40568 | 92 ft | 2 kts | 353° |
| 2026-04-20 19:00 | 33.94680 | -118.40570 | 92 ft | 2 kts | 353° |
| 2026-04-20 19:00 | 33.94697 | -118.40573 | 94 ft | 3 kts | 353° |
| 2026-04-20 19:00 | 33.94721 | -118.40577 | 92 ft | 5 kts | 352° |
| 2026-04-20 19:00 | 33.94775 | -118.40587 | 94 ft | 9 kts | 349° |
| 2026-04-20 19:01 | 33.94832 | -118.40598 | 93 ft | 8 kts | 3° |
| 2026-04-20 19:01 | 33.94867 | -118.40550 | 93 ft | 8 kts | 78° |
| 2026-04-20 19:01 | 33.94875 | -118.40478 | 93 ft | 10 kts | 83° |
| 2026-04-20 19:01 | 33.94885 | -118.40382 | 97 ft | 13 kts | 83° |
| 2026-04-20 19:02 | 33.94898 | -118.40264 | 93 ft | 15 kts | 83° |
| 2026-04-20 19:02 | 33.94911 | -118.40135 | 93 ft | 16 kts | 83° |
| 2026-04-20 19:02 | 33.94925 | -118.39994 | 92 ft | 14 kts | 83° |
| 2026-04-20 19:02 | 33.94941 | -118.39935 | 93 ft | 2 kts | 51° |
| 2026-04-20 19:03 | 33.94957 | -118.39921 | 93 ft | 4 kts | 28° |
| 2026-04-20 19:03 | 33.95020 | -118.39925 | 93 ft | 14 kts | 330° |
| 2026-04-20 19:03 | 33.95035 | -118.40016 | 94 ft | 17 kts | 263° |
| 2026-04-20 19:03 | 33.94999 | -118.40374 | 97 ft | 75 kts | 263° |
| 2026-04-20 19:04 | 33.94911 | -118.41234 | 98 ft | 128 kts | 263° |
| 2026-04-20 19:04 | 33.94801 | -118.42341 | 148 ft | 160 kts | 263° |
| 2026-04-20 19:04 | 33.94733 | -118.43273 | 415 ft | 165 kts | 265° |
| 2026-04-20 19:04 | 33.94635 | -118.44717 | 918 ft | 175 kts | 263° |
| 2026-04-20 19:05 | 33.94490 | -118.46207 | 1427 ft | 180 kts | 259° |
| 2026-04-20 19:05 | 33.94298 | -118.47723 | 1815 ft | 192 kts | 266° |
| 2026-04-20 19:05 | 33.94253 | -118.49453 | 2003 ft | 215 kts | 267° |
| 2026-04-20 19:05 | 33.94198 | -118.51311 | 2299 ft | 229 kts | 266° |
| 2026-04-20 19:06 | 33.94075 | -118.53299 | 2528 ft | 250 kts | 263° |
| 2026-04-20 19:06 | 33.93884 | -118.55462 | 2926 ft | 266 kts | 262° |
| 2026-04-20 19:06 | 33.93696 | -118.57629 | 3603 ft | 269 kts | 263° |
| 2026-04-20 19:06 | 33.93528 | -118.59741 | 4345 ft | 269 kts | 263° |
| 2026-04-20 19:07 | 33.93353 | -118.61982 | 4805 ft | 269 kts | 263° |
| 2026-04-20 19:07 | 33.93179 | -118.64204 | 4973 ft | 272 kts | 264° |
| 2026-04-20 19:07 | 33.93001 | -118.66488 | 4984 ft | 275 kts | 262° |
| 2026-04-20 19:07 | 33.92824 | -118.68773 | 4994 ft | 273 kts | 263° |
| 2026-04-20 19:08 | 33.92649 | -118.71036 | 4987 ft | 270 kts | 263° |
| 2026-04-20 19:08 | 33.92299 | -118.75562 | 5767 ft | 274 kts | 263° |
| 2026-04-20 19:08 | 33.92121 | -118.77840 | 6553 ft | 273 kts | 262° |
| 2026-04-20 19:09 | 33.91942 | -118.80122 | 7222 ft | 275 kts | 262° |
| 2026-04-20 19:09 | 33.91760 | -118.82426 | 7883 ft | 278 kts | 262° |
| 2026-04-20 19:09 | 33.91659 | -118.84758 | 8542 ft | 281 kts | 268° |
| 2026-04-20 19:09 | 33.91734 | -118.87123 | 9232 ft | 284 kts | 270° |
| 2026-04-20 19:10 | 33.91840 | -118.89505 | 9888 ft | 287 kts | 270° |
| 2026-04-20 19:10 | 33.91937 | -118.91930 | 10333 ft | 297 kts | 269° |
| 2026-04-20 19:10 | 33.92023 | -118.94506 | 10477 ft | 318 kts | 269° |
| 2026-04-20 19:10 | 33.92105 | -118.97245 | 10642 ft | 337 kts | 269° |
| 2026-04-20 19:11 | 33.92203 | -119.00135 | 10783 ft | 355 kts | 272° |
| 2026-04-20 19:11 | 33.92873 | -119.03039 | 10870 ft | 379 kts | 295° |
| 2026-04-20 19:11 | 33.94276 | -119.05809 | 11025 ft | 395 kts | 300° |
| 2026-04-20 19:11 | 33.95782 | -119.08617 | 11338 ft | 402 kts | 300° |
| 2026-04-20 19:12 | 33.97291 | -119.11464 | 11800 ft | 405 kts | 299° |
| 2026-04-20 19:12 | 33.98790 | -119.14341 | 12307 ft | 406 kts | 299° |
| 2026-04-20 19:12 | 34.00291 | -119.17240 | 12799 ft | 409 kts | 300° |
| 2026-04-20 19:12 | 34.02155 | -119.19853 | 13218 ft | 420 kts | 319° |
| 2026-04-20 19:13 | 34.04572 | -119.21876 | 13712 ft | 424 kts | 323° |
| 2026-04-20 19:13 | 34.07017 | -119.23891 | 14141 ft | 427 kts | 322° |
| 2026-04-20 19:13 | 34.09464 | -119.25942 | 14578 ft | 430 kts | 321° |
| 2026-04-20 19:13 | 34.11917 | -119.28025 | 15019 ft | 432 kts | 321° |
| 2026-04-20 19:14 | 34.14377 | -119.30132 | 15469 ft | 435 kts | 321° |
| 2026-04-20 19:14 | 34.16847 | -119.32258 | 15897 ft | 438 kts | 321° |
| 2026-04-20 19:14 | 34.19331 | -119.34401 | 16317 ft | 440 kts | 320° |
| 2026-04-20 19:14 | 34.21831 | -119.36561 | 16711 ft | 443 kts | 320° |
| 2026-04-20 19:15 | 34.24348 | -119.38735 | 17118 ft | 446 kts | 320° |
| 2026-04-20 19:15 | 34.26879 | -119.40923 | 17505 ft | 449 kts | 320° |
| 2026-04-20 19:15 | 34.29424 | -119.43124 | 17886 ft | 451 kts | 320° |
| 2026-04-20 19:15 | 34.31984 | -119.45339 | 18267 ft | 454 kts | 320° |
| 2026-04-20 19:16 | 34.34560 | -119.47570 | 18596 ft | 456 kts | 320° |
| 2026-04-20 19:16 | 34.37148 | -119.49813 | 18937 ft | 458 kts | 320° |
| 2026-04-20 19:16 | 34.39739 | -119.52059 | 19290 ft | 459 kts | 320° |
| 2026-04-20 19:16 | 34.42288 | -119.54398 | 19615 ft | 459 kts | 315° |
| 2026-04-20 19:17 | 34.44618 | -119.57032 | 19932 ft | 458 kts | 310° |
| 2026-04-20 19:17 | 34.46826 | -119.59806 | 20254 ft | 459 kts | 308° |
| 2026-04-20 19:17 | 34.49010 | -119.62637 | 20590 ft | 461 kts | 308° |
| 2026-04-20 19:17 | 34.51212 | -119.65495 | 20874 ft | 465 kts | 308° |
| 2026-04-20 19:18 | 34.53438 | -119.68333 | 21293 ft | 464 kts | 309° |
| 2026-04-20 19:18 | 34.55680 | -119.71153 | 21624 ft | 466 kts | 309° |
| 2026-04-20 19:18 | 34.57950 | -119.73978 | 21914 ft | 469 kts | 309° |
| 2026-04-20 19:18 | 34.60206 | -119.76771 | 22185 ft | 471 kts | 310° |
| 2026-04-20 19:19 | 34.62512 | -119.79622 | 22368 ft | 475 kts | 310° |
| 2026-04-20 19:19 | 34.64831 | -119.82484 | 22723 ft | 475 kts | 309° |
| 2026-04-20 19:19 | 34.67149 | -119.85347 | 23044 ft | 477 kts | 309° |
| 2026-04-20 19:19 | 34.69477 | -119.88228 | 23279 ft | 479 kts | 309° |
| 2026-04-20 19:20 | 34.71818 | -119.91129 | 23560 ft | 481 kts | 309° |
| 2026-04-20 19:20 | 34.74165 | -119.94042 | 23788 ft | 483 kts | 309° |
| 2026-04-20 19:20 | 34.76514 | -119.96958 | 24064 ft | 483 kts | 309° |
| 2026-04-20 19:20 | 34.78865 | -119.99880 | 24273 ft | 483 kts | 309° |
| 2026-04-20 19:21 | 34.81220 | -120.02812 | 24417 ft | 487 kts | 309° |
| 2026-04-20 19:21 | 34.83593 | -120.05768 | 24572 ft | 489 kts | 309° |
| 2026-04-20 19:21 | 34.85969 | -120.08730 | 24867 ft | 488 kts | 309° |
| 2026-04-20 19:21 | 34.88344 | -120.11693 | 25097 ft | 490 kts | 309° |
| 2026-04-20 19:22 | 34.90731 | -120.14674 | 25251 ft | 493 kts | 309° |
| 2026-04-20 19:22 | 34.93130 | -120.17674 | 25432 ft | 495 kts | 309° |
| 2026-04-20 19:22 | 34.95530 | -120.20674 | 25692 ft | 494 kts | 309° |
| 2026-04-20 19:22 | 34.97927 | -120.23675 | 26010 ft | 493 kts | 309° |
| 2026-04-20 19:23 | 35.00286 | -120.26630 | 26329 ft | 492 kts | 309° |
| 2026-04-20 19:23 | 35.02670 | -120.29621 | 26674 ft | 491 kts | 309° |
| 2026-04-20 19:23 | 35.05050 | -120.32609 | 26996 ft | 491 kts | 309° |
| 2026-04-20 19:23 | 35.07424 | -120.35592 | 27350 ft | 490 kts | 309° |
| 2026-04-20 19:24 | 35.09814 | -120.38559 | 27679 ft | 490 kts | 311° |
| 2026-04-20 19:24 | 35.12292 | -120.41425 | 28061 ft | 491 kts | 313° |
| 2026-04-20 19:24 | 35.14820 | -120.44228 | 28438 ft | 491 kts | 314° |
| 2026-04-20 19:24 | 35.17361 | -120.47009 | 28876 ft | 489 kts | 314° |
| 2026-04-20 19:25 | 35.19037 | -120.48847 | 29157 ft | 488 kts | 314° |
| 2026-04-20 19:25 | 35.21588 | -120.51666 | 29514 ft | 488 kts | 313° |
| 2026-04-20 19:25 | 35.24063 | -120.54424 | 29860 ft | 488 kts | 313° |
| 2026-04-20 19:25 | 35.26565 | -120.57232 | 30245 ft | 488 kts | 313° |
| 2026-04-20 19:26 | 35.29056 | -120.60037 | 30615 ft | 486 kts | 313° |
| 2026-04-20 19:26 | 35.31540 | -120.62840 | 30986 ft | 485 kts | 313° |
| 2026-04-20 19:26 | 35.34021 | -120.65641 | 31323 ft | 485 kts | 313° |
| 2026-04-20 19:26 | 35.36499 | -120.68441 | 31646 ft | 485 kts | 313° |
| 2026-04-20 19:27 | 35.38977 | -120.71241 | 31994 ft | 484 kts | 313° |
| 2026-04-20 19:27 | 35.43942 | -120.76860 | 32077 ft | 485 kts | 313° |
| 2026-04-20 19:28 | 35.48898 | -120.82453 | 32083 ft | 485 kts | 315° |
| 2026-04-20 19:28 | 35.54199 | -120.87616 | 32077 ft | 487 kts | 319° |
| 2026-04-20 19:29 | 35.59652 | -120.92560 | 32084 ft | 487 kts | 319° |
| 2026-04-20 19:29 | 35.65057 | -120.97487 | 32087 ft | 487 kts | 319° |
| 2026-04-20 19:30 | 35.70472 | -121.02494 | 32066 ft | 487 kts | 319° |
| 2026-04-20 19:30 | 35.75877 | -121.07521 | 32076 ft | 487 kts | 319° |
| 2026-04-20 19:31 | 35.81287 | -121.12561 | 32066 ft | 487 kts | 319° |
| 2026-04-20 19:31 | 35.86697 | -121.17608 | 32054 ft | 488 kts | 319° |
| 2026-04-20 19:32 | 35.92108 | -121.22663 | 32068 ft | 488 kts | 318° |
| 2026-04-20 19:32 | 35.97522 | -121.27731 | 32048 ft | 489 kts | 318° |
| 2026-04-20 19:33 | 36.02940 | -121.32811 | 32032 ft | 489 kts | 318° |
| 2026-04-20 19:33 | 36.08374 | -121.37861 | 32044 ft | 490 kts | 320° |
| 2026-04-20 19:34 | 36.14144 | -121.42404 | 32039 ft | 493 kts | 324° |
| 2026-04-20 19:34 | 36.17109 | -121.44620 | 31285 ft | 503 kts | 324° |
| 2026-04-20 19:34 | 36.20088 | -121.46862 | 30496 ft | 497 kts | 324° |
| 2026-04-20 19:34 | 36.23018 | -121.49098 | 29537 ft | 492 kts | 323° |
| 2026-04-20 19:35 | 36.25906 | -121.51334 | 28532 ft | 487 kts | 322° |
| 2026-04-20 19:35 | 36.28758 | -121.53562 | 27555 ft | 483 kts | 322° |
| 2026-04-20 19:35 | 36.31594 | -121.55790 | 26565 ft | 481 kts | 322° |
| 2026-04-20 19:35 | 36.34413 | -121.58009 | 25662 ft | 478 kts | 321° |
| 2026-04-20 19:36 | 36.37156 | -121.60166 | 24994 ft | 471 kts | 321° |
| 2026-04-20 19:36 | 36.39890 | -121.62312 | 24807 ft | 461 kts | 321° |
| 2026-04-20 19:36 | 36.42607 | -121.64455 | 24598 ft | 465 kts | 321° |
| 2026-04-20 19:36 | 36.45327 | -121.66599 | 24349 ft | 456 kts | 321° |
| 2026-04-20 19:37 | 36.47949 | -121.68657 | 24163 ft | 437 kts | 321° |
| 2026-04-20 19:37 | 36.50476 | -121.70643 | 23874 ft | 423 kts | 321° |
| 2026-04-20 19:37 | 36.52945 | -121.72592 | 23312 ft | 417 kts | 320° |
| 2026-04-20 19:37 | 36.55373 | -121.74511 | 22802 ft | 410 kts | 320° |
| 2026-04-20 19:38 | 36.57758 | -121.76398 | 22291 ft | 402 kts | 320° |
| 2026-04-20 19:38 | 36.60097 | -121.78252 | 21823 ft | 396 kts | 320° |
| 2026-04-20 19:38 | 36.62406 | -121.80084 | 21387 ft | 392 kts | 319° |
| 2026-04-20 19:38 | 36.64703 | -121.81908 | 20911 ft | 391 kts | 320° |
| 2026-04-20 19:39 | 36.66993 | -121.83730 | 20447 ft | 390 kts | 320° |
| 2026-04-20 19:39 | 36.69279 | -121.85547 | 19990 ft | 389 kts | 320° |
| 2026-04-20 19:39 | 36.71560 | -121.87359 | 19537 ft | 388 kts | 320° |
| 2026-04-20 19:39 | 36.73835 | -121.89167 | 19109 ft | 387 kts | 320° |
| 2026-04-20 19:40 | 36.76014 | -121.91109 | 18671 ft | 383 kts | 314° |
| 2026-04-20 19:40 | 36.78055 | -121.93226 | 18235 ft | 382 kts | 311° |
| 2026-04-20 19:40 | 36.80064 | -121.95409 | 17756 ft | 383 kts | 311° |
| 2026-04-20 19:40 | 36.82071 | -121.97599 | 17307 ft | 384 kts | 312° |
| 2026-04-20 19:41 | 36.84089 | -121.99780 | 16865 ft | 383 kts | 312° |
| 2026-04-20 19:41 | 36.86085 | -122.01914 | 16441 ft | 382 kts | 313° |
| 2026-04-20 19:41 | 36.88108 | -122.04061 | 16022 ft | 381 kts | 313° |
| 2026-04-20 19:41 | 36.90127 | -122.06194 | 15601 ft | 380 kts | 314° |
| 2026-04-20 19:42 | 36.92143 | -122.08320 | 15216 ft | 378 kts | 314° |
| 2026-04-20 19:42 | 36.94146 | -122.10431 | 14793 ft | 376 kts | 314° |
| 2026-04-20 19:42 | 36.96140 | -122.12534 | 14366 ft | 374 kts | 314° |
| 2026-04-20 19:42 | 36.98125 | -122.14630 | 13954 ft | 373 kts | 314° |
| 2026-04-20 19:43 | 37.00102 | -122.16720 | 13486 ft | 372 kts | 314° |
| 2026-04-20 19:43 | 37.02069 | -122.18798 | 13040 ft | 367 kts | 315° |
| 2026-04-20 19:43 | 37.04002 | -122.20841 | 12619 ft | 360 kts | 315° |
| 2026-04-20 19:43 | 37.05893 | -122.22849 | 12226 ft | 353 kts | 313° |
| 2026-04-20 19:44 | 37.07518 | -122.25071 | 11857 ft | 339 kts | 303° |
| 2026-04-20 19:44 | 37.08981 | -122.27350 | 11482 ft | 333 kts | 303° |
| 2026-04-20 19:44 | 37.10477 | -122.29541 | 11073 ft | 330 kts | 311° |
| 2026-04-20 19:44 | 37.12221 | -122.31384 | 10717 ft | 327 kts | 317° |
| 2026-04-20 19:45 | 37.14005 | -122.33133 | 10414 ft | 321 kts | 317° |
| 2026-04-20 19:45 | 37.15713 | -122.34851 | 10181 ft | 309 kts | 314° |
| 2026-04-20 19:45 | 37.17342 | -122.36560 | 9993 ft | 300 kts | 313° |
| 2026-04-20 19:45 | 37.18903 | -122.38225 | 9954 ft | 292 kts | 313° |
| 2026-04-20 19:46 | 37.20446 | -122.39879 | 9764 ft | 292 kts | 313° |
| 2026-04-20 19:46 | 37.21994 | -122.41533 | 9568 ft | 292 kts | 313° |
| 2026-04-20 19:46 | 37.23551 | -122.43191 | 9374 ft | 295 kts | 313° |
| 2026-04-20 19:46 | 37.25112 | -122.44852 | 9180 ft | 296 kts | 313° |
| 2026-04-20 19:47 | 37.26689 | -122.46524 | 8990 ft | 296 kts | 314° |
| 2026-04-20 19:47 | 37.28265 | -122.48196 | 8786 ft | 296 kts | 314° |
| 2026-04-20 19:47 | 37.29838 | -122.49862 | 8588 ft | 296 kts | 314° |
| 2026-04-20 19:47 | 37.31411 | -122.51528 | 8397 ft | 294 kts | 314° |
| 2026-04-20 19:48 | 37.32968 | -122.53178 | 8186 ft | 291 kts | 314° |
| 2026-04-20 19:48 | 37.34501 | -122.54803 | 7994 ft | 286 kts | 314° |
| 2026-04-20 19:48 | 37.36012 | -122.56405 | 7814 ft | 283 kts | 314° |
| 2026-04-20 19:48 | 37.37496 | -122.57982 | 7623 ft | 283 kts | 314° |
| 2026-04-20 19:49 | 37.38993 | -122.59572 | 7446 ft | 281 kts | 314° |
| 2026-04-20 19:49 | 37.40488 | -122.61161 | 7263 ft | 281 kts | 314° |
| 2026-04-20 19:49 | 37.41986 | -122.62751 | 7085 ft | 283 kts | 314° |
| 2026-04-20 19:49 | 37.43489 | -122.64350 | 6888 ft | 284 kts | 314° |
| 2026-04-20 19:50 | 37.44998 | -122.65960 | 6682 ft | 284 kts | 314° |
| 2026-04-20 19:50 | 37.46492 | -122.67552 | 6480 ft | 279 kts | 314° |
| 2026-04-20 19:50 | 37.47955 | -122.69109 | 6307 ft | 272 kts | 313° |
| 2026-04-20 19:50 | 37.49369 | -122.70614 | 6139 ft | 261 kts | 313° |
| 2026-04-20 19:51 | 37.50721 | -122.72059 | 5992 ft | 248 kts | 313° |
| 2026-04-20 19:51 | 37.52230 | -122.73081 | 5969 ft | 252 kts | 348° |
| 2026-04-20 19:51 | 37.54006 | -122.73051 | 6021 ft | 261 kts | 3° |
| 2026-04-20 19:51 | 37.55839 | -122.72872 | 6003 ft | 266 kts | 3° |
| 2026-04-20 19:52 | 37.57686 | -122.72701 | 5995 ft | 265 kts | 3° |
| 2026-04-20 19:52 | 37.59508 | -122.72533 | 5907 ft | 259 kts | 2° |
| 2026-04-20 19:52 | 37.61285 | -122.72361 | 5609 ft | 252 kts | 2° |
| 2026-04-20 19:52 | 37.63038 | -122.72186 | 5012 ft | 255 kts | 3° |
| 2026-04-20 19:53 | 37.64813 | -122.72004 | 4468 ft | 256 kts | 3° |
| 2026-04-20 19:53 | 37.66576 | -122.71818 | 3997 ft | 253 kts | 2° |
| 2026-04-20 19:53 | 37.68324 | -122.71619 | 3486 ft | 252 kts | 3° |
| 2026-04-20 19:53 | 37.70057 | -122.71383 | 3068 ft | 251 kts | 14° |
| 2026-04-20 19:54 | 37.71555 | -122.70250 | 3016 ft | 252 kts | 56° |
| 2026-04-20 19:54 | 37.72183 | -122.68318 | 2989 ft | 231 kts | 94° |
| 2026-04-20 19:54 | 37.72313 | -122.66318 | 2980 ft | 229 kts | 91° |
| 2026-04-20 19:54 | 37.72538 | -122.64354 | 2961 ft | 221 kts | 89° |
| 2026-04-20 19:55 | 37.72778 | -122.62487 | 2957 ft | 211 kts | 90° |
| 2026-04-20 19:55 | 37.72819 | -122.60698 | 2956 ft | 194 kts | 117° |
| 2026-04-20 19:55 | 37.72221 | -122.59255 | 2990 ft | 185 kts | 130° |
| 2026-04-20 19:55 | 37.71560 | -122.57844 | 3000 ft | 187 kts | 129° |
| 2026-04-20 19:56 | 37.71127 | -122.56913 | 2993 ft | 183 kts | 129° |
| 2026-04-20 19:56 | 37.70307 | -122.55150 | 2829 ft | 167 kts | 130° |
| 2026-04-20 19:56 | 37.69741 | -122.53940 | 2643 ft | 154 kts | 130° |
| 2026-04-20 19:56 | 37.69203 | -122.52798 | 2458 ft | 150 kts | 130° |
| 2026-04-20 19:57 | 37.68671 | -122.51674 | 2288 ft | 146 kts | 130° |
| 2026-04-20 19:57 | 37.68155 | -122.50581 | 2063 ft | 143 kts | 130° |
| 2026-04-20 19:57 | 37.67636 | -122.49488 | 1880 ft | 147 kts | 131° |
| 2026-04-20 19:57 | 37.67109 | -122.48360 | 1671 ft | 151 kts | 127° |
| 2026-04-20 19:58 | 37.66563 | -122.47224 | 1476 ft | 152 kts | 127° |
| 2026-04-20 19:58 | 37.66035 | -122.46108 | 1275 ft | 144 kts | 126° |
| 2026-04-20 19:58 | 37.65535 | -122.45045 | 1087 ft | 138 kts | 125° |
| 2026-04-20 19:58 | 37.65031 | -122.43982 | 879 ft | 144 kts | 126° |
| 2026-04-20 19:59 | 37.64520 | -122.42903 | 715 ft | 143 kts | 126° |
| 2026-04-20 19:59 | 37.64009 | -122.41829 | 523 ft | 141 kts | 129° |
| 2026-04-20 19:59 | 37.63504 | -122.40762 | 354 ft | 143 kts | 130° |
| 2026-04-20 19:59 | 37.63007 | -122.39662 | 123 ft | 145 kts | 128° |
| 2026-04-20 20:00 | 37.62539 | -122.38532 | 28 ft | 138 kts | 125° |
| 2026-04-20 20:00 | 37.62161 | -122.37642 | 21 ft | 85 kts | 117° |
| 2026-04-20 20:00 | 37.61976 | -122.37206 | 21 ft | 37 kts | 120° |
| 2026-04-20 20:00 | 37.61883 | -122.37085 | 21 ft | 13 kts | 201° |
| 2026-04-20 20:01 | 37.61821 | -122.37125 | 21 ft | 0 kts | 208° |
| 2026-04-20 20:02 | 37.61784 | -122.37148 | 22 ft | 16 kts | 207° |
| 2026-04-20 20:02 | 37.61679 | -122.37215 | 21 ft | 17 kts | 208° |
| 2026-04-20 20:02 | 37.61579 | -122.37285 | 21 ft | 16 kts | 208° |
| 2026-04-20 20:03 | 37.61481 | -122.37348 | 22 ft | 15 kts | 207° |
| 2026-04-20 20:03 | 37.61388 | -122.37411 | 21 ft | 15 kts | 207° |
| 2026-04-20 20:03 | 37.61294 | -122.37473 | 22 ft | 16 kts | 211° |
| 2026-04-20 20:03 | 37.61231 | -122.37579 | 21 ft | 15 kts | 256° |
| 2026-04-20 20:04 | 37.61249 | -122.37713 | 21 ft | 17 kts | 295° |
| 2026-04-20 20:04 | 37.61305 | -122.37850 | 21 ft | 19 kts | 297° |
| 2026-04-20 20:04 | 37.61364 | -122.37993 | 21 ft | 13 kts | 297° |
| 2026-04-20 20:04 | 37.61394 | -122.38065 | 23 ft | 5 kts | 298° |
| 2026-04-20 20:05 | 37.61391 | -122.38141 | 22 ft | 13 kts | 227° |
| 2026-04-20 20:05 | 37.61300 | -122.38206 | 21 ft | 18 kts | 207° |
| 2026-04-20 20:05 | 37.61229 | -122.38280 | 21 ft | 10 kts | 268° |
| 2026-04-20 20:05 | 37.61235 | -122.38304 | 21 ft | 0 kts | 297° |
| 2026-04-20 20:06 | 37.61254 | -122.38351 | 22 ft | 9 kts | 298° |
| 2026-04-20 20:06 | 37.61265 | -122.38378 | 21 ft | 1 kts | 298° |
| 2026-04-20 20:07 | 37.61268 | -122.38386 | 21 ft | 1 kts | 298° |
| 2026-04-20 20:07 | 37.61269 | -122.38388 | 21 ft | 0 kts | 298° |